Time;durP1;ratioP1;P1;durP2;ratioP2;P2;SDS_P1;SDS_P2;PMS_P1;PMS_P2;Temp;Humidity;BMP_temperature;BMP_pressure;BME280_temperature;BME280_humidity;BME280_pressure;Samples;Min_cycle;Max_cycle;Signal;HPM_P1;HPM_P2
2022/03/18 00:02:21;;;;;;;18.47;13.33;;;14.70;63.60;;;;;;12917860;23;20163;-82
2022/03/18 00:07:24;;;;;;;21.67;13.93;;;14.80;63.40;;;;;;12918042;23;20166;-85
2022/03/18 00:12:26;;;;;;;15.70;12.50;;;14.90;63.30;;;;;;12917991;23;20201;-82
2022/03/18 00:17:29;;;;;;;15.70;12.23;;;14.60;64.00;;;;;;12917571;23;20575;-82
2022/03/18 00:22:31;;;;;;;20.43;12.80;;;14.70;63.80;;;;;;12917621;23;20167;-82
2022/03/18 00:27:38;;;;;;;15.07;11.13;;;14.70;63.50;;;;;;12936266;23;20169;-81
2022/03/18 00:32:42;;;;;;;18.47;12.07;;;14.80;63.40;;;;;;12924787;23;20174;-82
2022/03/18 00:38:04;;;;;;;19.13;12.67;;;14.80;63.40;;;;;;12935309;23;20167;-82
2022/03/18 00:43:07;;;;;;;17.50;11.73;;;14.80;63.00;;;;;;12933607;23;20649;-81
2022/03/18 00:53:30;;;;;;;15.27;10.87;;;15.00;62.90;;;;;;12936029;23;20186;-81
2022/03/18 00:58:33;;;;;;;25.97;15.70;;;14.90;62.80;;;;;;12917697;23;20163;-82
2022/03/18 01:03:35;;;;;;;16.40;11.13;;;14.10;57.60;;;;;;12921756;23;20170;-82
2022/03/18 01:08:38;;;;;;;15.40;11.17;;;14.30;64.60;;;;;;12934689;23;20167;-81
2022/03/18 01:13:40;;;;;;;15.97;11.70;;;14.40;63.40;;;;;;12917380;23;20186;-82
2022/03/18 01:18:43;;;;;;;16.73;10.90;;;14.10;63.90;;;;;;12917107;23;20240;-82
2022/03/18 01:23:46;;;;;;;18.17;11.33;;;14.10;65.00;;;;;;12917114;23;20220;-82
2022/03/18 01:28:48;;;;;;;15.00;10.40;;;14.10;64.60;;;;;;12915759;23;20176;-82
2022/03/18 01:33:51;;;;;;;16.43;11.83;;;14.10;64.80;;;;;;12916133;22;20182;-82
2022/03/18 01:38:53;;;;;;;14.20;10.97;;;14.40;63.80;;;;;;12915061;23;20629;-82
2022/03/18 01:43:56;;;;;;;16.13;11.27;;;14.40;63.90;;;;;;12915149;23;20240;-82
2022/03/18 01:49:00;;;;;;;15.77;10.90;;;14.40;63.90;;;;;;12916736;23;20489;-82
2022/03/18 01:59:24;;;;;;;16.90;11.40;;;13.40;62.80;;;;;;12916569;23;20273;-81
2022/03/18 02:04:27;;;;;;;14.37;10.07;;;12.90;66.00;;;;;;12916921;23;20180;-82
2022/03/18 02:09:33;;;;;;;18.37;10.60;;;12.80;68.10;;;;;;12917343;23;20527;-82
2022/03/18 02:14:41;;;;;;;16.97;11.33;;;12.80;67.10;;;;;;12917620;23;20190;-82
2022/03/18 02:19:45;;;;;;;15.60;11.23;;;13.00;65.40;;;;;;12889521;23;20178;-82
2022/03/18 02:24:49;;;;;;;15.73;10.13;;;12.60;66.80;;;;;;12933555;23;20171;-82
2022/03/18 02:29:52;;;;;;;17.70;12.10;;;12.50;68.50;;;;;;12933147;23;20170;-82
2022/03/18 02:34:55;;;;;;;16.50;10.20;;;12.40;66.80;;;;;;12914513;23;20572;-82
2022/03/18 02:39:59;;;;;;;16.33;11.47;;;12.50;68.60;;;;;;12932525;23;20166;-82
2022/03/18 02:45:02;;;;;;;17.37;11.57;;;12.40;67.40;;;;;;12926822;23;20191;-82
2022/03/18 02:50:06;;;;;;;15.10;10.17;;;11.40;69.30;;;;;;12913836;23;20178;-82
2022/03/18 02:55:09;;;;;;;13.33;10.30;;;11.10;71.50;;;;;;12916223;23;20190;-82
2022/03/18 03:00:12;;;;;;;18.33;12.97;;;11.20;71.70;;;;;;12915432;23;20618;-82
2022/03/18 03:10:38;;;;;;;18.93;12.47;;;10.40;71.50;;;;;;12934004;23;20170;-81
2022/03/18 03:15:41;;;;;;;21.57;12.80;;;9.30;75.60;;;;;;12917628;23;20190;-82
2022/03/18 03:20:43;;;;;;;20.47;13.13;;;8.90;74.00;;;;;;12919090;23;20162;-82
2022/03/18 03:25:46;;;;;;;21.43;12.93;;;8.50;71.80;;;;;;12918697;23;20246;-81
2022/03/18 03:30:49;;;;;;;19.37;12.37;;;7.90;74.20;;;;;;12918716;23;20208;-81
2022/03/18 03:35:52;;;;;;;14.00;9.80;;;9.10;77.10;;;;;;12918664;23;20189;-82
2022/03/18 03:40:55;;;;;;;15.23;9.90;;;10.10;77.60;;;;;;12938014;23;20216;-81
2022/03/18 03:45:57;;;;;;;17.27;10.67;;;9.90;74.10;;;;;;12917846;23;20224;-81
2022/03/18 03:51:00;;;;;;;13.23;9.03;;;9.70;74.10;;;;;;12916288;23;20706;-82
2022/03/18 03:56:03;;;;;;;12.40;8.77;;;10.60;75.90;;;;;;12918170;23;20193;-82
2022/03/18 04:01:05;;;;;;;16.10;10.37;;;11.40;73.40;;;;;;12933477;23;20222;-81
2022/03/18 04:06:08;;;;;;;13.10;8.87;;;11.00;71.30;;;;;;12916938;23;20170;-81
2022/03/18 04:11:10;;;;;;;11.23;9.13;;;11.60;72.60;;;;;;12935386;23;20167;-81
2022/03/18 04:16:13;;;;;;;12.93;8.73;;;11.80;71.10;;;;;;12915881;23;20257;-82
2022/03/18 04:21:15;;;;;;;12.00;8.90;;;12.40;70.10;;;;;;12916105;23;20229;-81
2022/03/18 04:26:18;;;;;;;12.30;8.53;;;12.40;69.40;;;;;;12936011;23;20192;-81
2022/03/18 04:31:21;;;;;;;16.63;11.40;;;12.30;69.80;;;;;;12915863;23;20232;-81
2022/03/18 04:36:23;;;;;;;13.03;9.13;;;11.90;66.40;;;;;;12916145;23;20221;-81
2022/03/18 04:41:26;;;;;;;11.40;8.70;;;11.50;71.30;;;;;;12916026;23;20202;-81
2022/03/18 04:46:31;;;;;;;13.10;9.50;;;12.00;70.80;;;;;;12922618;23;20241;-81
2022/03/18 04:51:33;;;;;;;13.03;8.83;;;11.90;69.30;;;;;;12915743;23;20166;-81
2022/03/18 05:01:57;;;;;;;17.23;10.63;;;11.90;67.30;;;;;;12914325;23;20200;-81
2022/03/18 05:06:59;;;;;;;14.40;9.50;;;11.30;69.60;;;;;;12918724;23;20229;-81
2022/03/18 05:12:02;;;;;;;15.13;9.77;;;11.90;70.00;;;;;;12914136;23;20232;-81
2022/03/18 05:17:06;;;;;;;10.10;7.97;;;12.10;69.30;;;;;;12916711;23;20190;-81
2022/03/18 05:22:08;;;;;;;10.60;8.43;;;12.40;67.90;;;;;;12916293;23;20226;-81
2022/03/18 05:27:11;;;;;;;9.10;7.10;;;12.30;68.90;;;;;;12915129;23;20641;-82
2022/03/18 05:32:13;;;;;;;17.33;10.67;;;12.90;68.10;;;;;;12916286;23;20175;-81
2022/03/18 05:37:16;;;;;;;12.17;9.60;;;12.60;66.50;;;;;;12889188;23;20534;-81
2022/03/18 05:42:18;;;;;;;21.63;14.27;;;12.50;67.50;;;;;;12935258;23;20171;-81
2022/03/18 05:47:21;;;;;;;21.00;10.07;;;11.40;62.20;;;;;;12914181;23;20189;-81
2022/03/18 05:52:24;;;;;;;14.00;9.93;;;11.10;70.20;;;;;;12913941;23;20197;-81
2022/03/18 05:57:27;;;;;;;14.30;9.43;;;11.50;68.80;;;;;;12914946;23;20225;-82
2022/03/18 06:02:29;;;;;;;11.43;7.67;;;11.70;69.00;;;;;;12915196;23;20248;-81
2022/03/18 06:07:33;;;;;;;12.53;8.87;;;12.00;69.80;;;;;;12916203;23;20197;-81
2022/03/18 06:12:37;;;;;;;10.13;7.63;;;12.20;68.90;;;;;;12916604;23;20174;-81
2022/03/18 06:17:40;;;;;;;13.13;10.07;;;12.00;69.70;;;;;;12914864;23;20244;-81
2022/03/18 06:22:42;;;;;;;13.20;8.53;;;12.50;68.30;;;;;;12915991;23;20889;-81
2022/03/18 06:27:45;;;;;;;12.57;9.30;;;12.40;67.90;;;;;;12914825;23;20657;-82
2022/03/18 06:32:47;;;;;;;15.73;9.77;;;12.30;67.20;;;;;;12915634;23;20200;-81
2022/03/18 06:37:49;;;;;;;24.17;16.03;;;11.00;67.30;;;;;;12915118;23;20244;-82
2022/03/18 06:42:52;;;;;;;12.90;9.03;;;10.70;62.10;;;;;;12930583;23;20612;-81
2022/03/18 06:47:54;;;;;;;20.27;13.53;;;11.70;71.30;;;;;;12928651;23;20637;-81
2022/03/18 06:52:57;;;;;;;11.63;8.13;;;12.60;58.90;;;;;;12917186;23;20174;-81
2022/03/18 06:57:59;;;;;;;29.33;16.10;;;12.80;67.50;;;;;;12919482;23;20240;-81
2022/03/18 07:03:02;;;;;;;11.97;8.13;;;13.30;53.10;;;;;;12919452;23;20167;-81
2022/03/18 07:08:05;;;;;;;27.70;14.50;;;12.90;65.90;;;;;;12917997;23;20170;-81
2022/03/18 07:13:09;;;;;;;20.23;13.47;;;13.40;62.10;;;;;;12919148;23;20197;-81
2022/03/18 07:18:12;;;;;;;11.30;7.23;;;13.60;58.90;;;;;;12892543;23;20190;-80
2022/03/18 07:23:16;;;;;;;13.57;9.07;;;13.70;65.10;;;;;;12918507;23;20511;-80
2022/03/18 07:28:19;;;;;;;21.03;12.60;;;14.30;63.20;;;;;;12918774;23;20822;-80
2022/03/18 07:33:22;;;;;;;21.60;13.17;;;14.40;53.70;;;;;;12918601;23;20175;-80
2022/03/18 07:38:24;;;;;;;18.43;11.87;;;14.60;51.80;;;;;;12917804;23;20182;-80
2022/03/18 07:43:28;;;;;;;20.87;11.27;;;14.70;51.30;;;;;;12919109;23;20502;-80
2022/03/18 07:48:30;;;;;;;16.50;11.00;;;14.30;51.30;;;;;;12919209;23;20174;-80
2022/03/18 07:53:33;;;;;;;18.67;11.70;;;;;;;;;;12915567;23;20227;-79
2022/03/18 07:58:35;;;;;;;17.93;10.93;;;15.00;49.50;;;;;;12936093;23;20190;-79
2022/03/18 08:03:38;;;;;;;25.80;14.10;;;;;;;;;;12923871;23;20174;-81
2022/03/18 08:08:41;;;;;;;21.63;11.17;;;9.50;45.40;;;;;;12916879;23;20170;-79
2022/03/18 08:13:45;;;;;;;29.43;13.30;;;13.40;51.40;;;;;;12918967;23;20601;-80
2022/03/18 08:18:47;;;;;;;20.77;11.30;;;14.10;45.00;;;;;;12919499;23;20244;-80
2022/03/18 08:23:51;;;;;;;22.97;10.73;;;14.50;45.60;;;;;;12918653;23;20538;-80
2022/03/18 08:28:53;;;;;;;40.70;12.63;;;14.70;45.60;;;;;;12916700;23;20167;-80
2022/03/18 08:33:56;;;;;;;37.37;11.93;;;14.30;50.40;;;;;;12917633;23;20174;-82
2022/03/18 08:39:01;;;;;;;38.80;11.50;;;14.70;47.50;;;;;;12916281;23;20220;-79
2022/03/18 08:44:08;;;;;;;26.63;12.93;;;14.80;46.90;;;;;;12916644;23;20248;-79
2022/03/18 08:49:10;;;;;;;23.73;10.63;;;14.90;45.60;;;;;;12916440;23;20220;-79
2022/03/18 08:54:13;;;;;;;19.77;8.87;;;15.40;47.50;;;;;;12917328;23;20166;-79
2022/03/18 08:59:15;;;;;;;28.13;11.57;;;15.90;47.80;;;;;;12916000;23;20198;-80
2022/03/18 09:04:18;;;;;;;19.97;9.87;;;10.80;59.20;;;;;;12915400;23;20482;-79
2022/03/18 09:09:20;;;;;;;21.50;10.30;;;13.30;59.00;;;;;;12915602;23;20220;-79
2022/03/18 09:14:23;;;;;;;19.80;9.70;;;14.90;56.10;;;;;;12915102;23;20272;-80
2022/03/18 09:19:25;;;;;;;17.73;9.17;;;16.10;54.80;;;;;;12915218;23;20232;-80
2022/03/18 09:24:30;;;;;;;15.80;8.30;;;15.90;54.40;;;;;;12916530;23;20197;-80
2022/03/18 09:29:32;;;;;;;17.23;7.30;;;16.30;53.90;;;;;;12914621;23;20174;-80
2022/03/18 09:34:35;;;;;;;12.57;8.70;;;16.10;53.60;;;;;;12913714;23;20175;-83
2022/03/18 09:39:37;;;;;;;17.40;9.60;;;16.20;52.10;;;;;;12915403;23;20187;-82
2022/03/18 09:44:45;;;;;;;15.97;8.07;;;16.20;51.40;;;;;;12920961;23;20221;-82
2022/03/18 09:49:48;;;;;;;13.63;8.53;;;16.00;53.90;;;;;;12914635;23;20226;-80
2022/03/18 09:54:51;;;;;;;13.00;7.60;;;16.10;54.10;;;;;;12915187;23;20167;-81
2022/03/18 09:59:54;;;;;;;12.57;7.83;;;16.00;54.30;;;;;;12915349;23;20232;-80
2022/03/18 10:05:01;;;;;;;13.77;7.50;;;15.80;53.90;;;;;;12915890;23;20205;-81
2022/03/18 10:10:04;;;;;;;10.57;7.27;;;16.30;52.70;;;;;;12912398;23;20178;-79
2022/03/18 10:15:06;;;;;;;14.50;8.47;;;16.10;53.20;;;;;;12914615;23;20194;-80
2022/03/18 10:20:27;;;;;;;12.07;8.63;;;15.50;42.20;;;;;;12914130;23;20575;-80
2022/03/18 10:25:36;;;;;;;12.43;7.80;;;15.10;48.30;;;;;;12917444;23;20166;-80
2022/03/18 10:30:39;;;;;;;10.80;6.93;;;15.10;53.30;;;;;;12937755;23;20221;-80
2022/03/18 10:41:25;;;;;;;10.73;6.27;;;15.40;55.70;;;;;;12914857;23;20523;-81
2022/03/18 10:46:28;;;;;;;12.60;7.60;;;15.90;54.70;;;;;;12916865;23;20256;-80
2022/03/18 10:51:32;;;;;;;12.10;7.13;;;14.90;40.50;;;;;;12916682;23;20221;-80
2022/03/18 10:56:56;;;;;;;10.63;6.60;;;15.50;54.80;;;;;;12916163;23;20187;-80
2022/03/18 11:02:00;;;;;;;11.23;7.80;;;15.70;54.60;;;;;;12933502;23;20220;-80
2022/03/18 11:12:27;;;;;;;13.40;8.47;;;15.40;55.20;;;;;;12915581;23;20224;-80
2022/03/18 11:17:30;;;;;;;11.33;8.07;;;15.10;42.40;;;;;;12916634;23;20213;-80
2022/03/18 11:22:35;;;;;;;8.77;6.00;;;12.50;36.70;;;;;;12890524;23;20170;-80
2022/03/18 11:27:41;;;;;;;12.23;7.83;;;13.80;59.80;;;;;;12914924;23;20675;-80
2022/03/18 11:32:43;;;;;;;9.23;5.77;;;11.90;46.80;;;;;;12890590;23;20182;-80
2022/03/18 11:38:05;;;;;;;8.33;5.97;;;13.80;59.90;;;;;;12914553;23;20527;-80
2022/03/18 11:43:31;;;;;;;8.87;5.87;;;15.10;57.30;;;;;;12934773;23;20158;-80
2022/03/18 11:48:35;;;;;;;9.43;6.43;;;15.10;49.80;;;;;;12903741;23;20649;-80
2022/03/18 11:53:50;;;;;;;9.80;8.03;;;14.10;57.20;;;;;;12914716;23;20888;-80
2022/03/18 11:58:53;;;;;;;13.40;8.77;;;14.50;35.40;;;;;;12934233;23;20185;-80
2022/03/18 12:03:57;;;;;;;12.73;9.80;;;12.10;31.40;;;;;;12916721;23;20232;-80
2022/03/18 12:09:01;;;;;;;20.47;7.20;;;11.70;33.20;;;;;;12915911;23;20197;-80
2022/03/18 12:14:08;;;;;;;10.43;7.80;;;12.90;61.90;;;;;;12915707;23;20234;-82
2022/03/18 12:19:12;;;;;;;8.97;5.40;;;13.70;54.40;;;;;;12922924;23;20190;-83
2022/03/18 12:24:17;;;;;;;9.17;7.23;;;13.30;60.10;;;;;;12914477;23;20240;-81
2022/03/18 12:29:26;;;;;;;11.10;9.87;;;14.60;56.00;;;;;;12916039;23;20200;-81
2022/03/18 12:34:29;;;;;;;15.20;12.67;;;14.30;50.50;;;;;;12922215;23;20174;-80
2022/03/18 12:39:31;;;;;;;12.57;9.50;;;13.90;35.90;;;;;;12916290;23;20256;-81
2022/03/18 12:44:43;;;;;;;18.97;11.97;;;14.50;39.20;;;;;;12913273;23;20272;-81
2022/03/18 12:49:48;;;;;;;14.63;12.00;;;14.00;37.70;;;;;;12887950;23;20182;-81
2022/03/18 12:55:03;;;;;;;14.20;9.50;;;13.10;33.10;;;;;;12914091;23;20175;-81
2022/03/18 13:00:08;;;;;;;12.30;9.43;;;14.70;54.90;;;;;;12913231;23;20260;-81
2022/03/18 13:05:31;;;;;;;18.00;13.10;;;14.70;44.30;;;;;;12917043;23;20209;-82
2022/03/18 13:10:34;;;;;;;6.57;4.87;;;12.90;35.90;;;;;;12934947;23;20699;-81
2022/03/18 13:21:09;;;;;;;12.10;9.67;;;14.30;53.00;;;;;;12912849;23;20178;-82
2022/03/18 13:26:15;;;;;;;6.77;5.23;;;14.70;40.80;;;;;;12919246;23;20232;-81
2022/03/18 13:36:39;;;;;;;10.10;7.03;;;13.80;58.50;;;;;;12918316;22;20236;-81
2022/03/18 13:41:48;;;;;;;11.97;9.93;;;13.30;53.40;;;;;;12914897;23;20256;-79
2022/03/18 13:47:05;;;;;;;14.80;9.97;;;13.30;40.00;;;;;;12921387;23;20194;-79
2022/03/18 13:52:12;;;;;;;15.70;12.17;;;13.10;53.20;;;;;;12933690;23;20170;-78
2022/03/18 13:57:15;;;;;;;13.57;9.33;;;13.70;41.30;;;;;;12916180;23;20589;-79
2022/03/18 14:02:36;;;;;;;13.50;8.90;;;14.00;46.70;;;;;;12916694;23;20192;-78
2022/03/18 14:07:47;;;;;;;16.57;11.33;;;14.00;48.10;;;;;;12935362;23;20171;-80
2022/03/18 14:12:59;;;;;;;30.83;9.90;;;13.80;40.80;;;;;;12935525;23;20178;-79
2022/03/18 14:18:07;;;;;;;41.53;10.33;;;12.80;52.80;;;;;;12917166;23;20528;-79
2022/03/18 14:23:29;;;;;;;29.53;10.07;;;14.80;52.80;;;;;;12917914;23;20637;-80
2022/03/18 14:28:32;;;;;;;17.87;10.17;;;14.80;46.30;;;;;;12937467;23;20175;-80
2022/03/18 14:33:37;;;;;;;14.47;11.17;;;14.50;44.60;;;;;;12919422;23;20170;-82
2022/03/18 14:38:42;;;;;;;14.93;11.30;;;14.20;37.90;;;;;;12919443;22;20202;-82
2022/03/18 14:43:45;;;;;;;19.23;12.70;;;13.80;35.40;;;;;;12917329;23;20198;-81
2022/03/18 14:48:47;;;;;;;16.37;11.20;;;11.30;37.40;;;;;;12918950;23;20179;-81
2022/03/18 14:53:50;;;;;;;21.00;12.13;;;14.00;61.20;;;;;;12916808;23;20163;-80
2022/03/18 14:58:53;;;;;;;20.90;11.70;;;13.50;41.00;;;;;;12917306;23;20564;-81
2022/03/18 15:04:00;;;;;;;29.40;12.20;;;11.70;36.70;;;;;;12916827;23;20167;-80
2022/03/18 15:09:03;;;;;;;19.13;12.60;;;10.70;37.50;;;;;;12918046;23;20506;-81
2022/03/18 15:14:06;;;;;;;22.73;12.20;;;10.10;37.00;;;;;;12920502;23;20174;-81
2022/03/18 15:19:09;;;;;;;17.03;11.37;;;10.40;41.70;;;;;;12918874;23;20190;-81
2022/03/18 15:24:11;;;;;;;21.57;15.57;;;10.80;50.80;;;;;;12918952;23;20176;-81
2022/03/18 15:29:14;;;;;;;20.83;12.43;;;9.80;37.00;;;;;;12921018;23;20180;-81
2022/03/18 15:34:16;;;;;;;16.53;12.20;;;9.30;38.80;;;;;;12920585;23;20172;-81
2022/03/18 15:39:19;;;;;;;17.57;11.40;;;8.90;39.50;;;;;;12918337;23;20198;-81
2022/03/18 15:44:22;;;;;;;19.23;11.03;;;9.00;40.80;;;;;;12918693;23;20525;-80
2022/03/18 15:49:28;;;;;;;20.73;12.80;;;9.00;39.70;;;;;;12920412;23;20171;-80
2022/03/18 15:54:31;;;;;;;20.87;10.90;;;8.80;39.50;;;;;;12935643;23;20214;-81
2022/03/18 15:59:34;;;;;;;18.20;11.50;;;8.90;39.60;;;;;;12919886;23;20521;-80
2022/03/18 16:04:36;;;;;;;15.60;10.20;;;8.80;41.10;;;;;;12893497;23;20201;-80
2022/03/18 16:09:39;;;;;;;14.77;9.63;;;8.70;40.70;;;;;;12937682;23;20167;-80
2022/03/18 16:14:42;;;;;;;17.80;9.97;;;8.90;41.80;;;;;;12918136;23;20179;-80
2022/03/18 16:19:44;;;;;;;16.53;8.73;;;8.70;40.80;;;;;;12918571;23;20236;-80
2022/03/18 16:24:48;;;;;;;16.47;8.87;;;8.90;58.30;;;;;;12919429;23;20547;-80
2022/03/18 16:29:51;;;;;;;20.97;12.80;;;9.60;53.20;;;;;;12918995;23;20556;-80
2022/03/18 16:34:55;;;;;;;21.97;13.17;;;9.30;43.30;;;;;;12916492;23;20525;-80
2022/03/18 16:39:58;;;;;;;17.00;11.20;;;9.00;44.80;;;;;;12918473;23;20219;-80
2022/03/18 16:45:02;;;;;;;65.57;12.27;;;8.30;48.30;;;;;;12918392;23;20186;-82
2022/03/18 16:50:05;;;;;;;43.83;13.23;;;10.90;68.20;;;;;;12918379;23;20660;-82
2022/03/18 16:55:08;;;;;;;38.97;12.00;;;12.60;50.00;;;;;;12916665;23;20170;-82
2022/03/18 17:00:13;;;;;;;32.27;12.07;;;13.00;50.20;;;;;;12936838;23;20186;-81
2022/03/18 17:05:16;;;;;;;37.77;11.17;;;13.10;50.90;;;;;;12917706;22;20178;-81
2022/03/18 17:10:19;;;;;;;31.07;10.43;;;13.40;51.40;;;;;;12918009;23;20166;-82
2022/03/18 17:15:22;;;;;;;34.20;11.67;;;14.00;50.70;;;;;;12891950;23;20531;-81
2022/03/18 17:20:25;;;;;;;28.40;10.70;;;14.00;51.20;;;;;;12915732;23;20236;-81
2022/03/18 17:25:28;;;;;;;23.63;10.03;;;14.20;51.40;;;;;;12917825;23;20197;-81
2022/03/18 17:30:30;;;;;;;23.80;10.47;;;14.00;52.10;;;;;;12916446;23;20626;-81
2022/03/18 17:35:33;;;;;;;25.93;12.17;;;14.20;52.20;;;;;;12916259;23;20191;-80
2022/03/18 17:40:35;;;;;;;23.00;10.60;;;13.90;52.80;;;;;;12936317;23;20190;-80
2022/03/18 17:45:38;;;;;;;34.90;16.47;;;13.60;53.70;;;;;;12916198;22;20217;-80
2022/03/18 17:50:41;;;;;;;25.93;11.30;;;13.50;53.70;;;;;;12917195;23;20691;-81
2022/03/18 17:55:43;;;;;;;31.97;16.50;;;13.40;55.20;;;;;;12915911;23;20174;-81
2022/03/18 18:00:46;;;;;;;27.93;15.30;;;13.40;55.10;;;;;;12917245;23;20191;-81
2022/03/18 18:05:50;;;;;;;25.23;13.47;;;13.50;55.60;;;;;;12915609;23;20228;-81
2022/03/18 18:10:55;;;;;;;21.33;10.53;;;13.50;55.50;;;;;;12933230;23;20174;-81
2022/03/18 18:15:58;;;;;;;20.53;9.90;;;14.00;55.30;;;;;;12934488;23;20170;-81
2022/03/18 18:26:23;;;;;;;17.20;10.17;;;14.50;54.40;;;;;;12917308;23;20630;-81
2022/03/18 18:31:25;;;;;;;19.77;11.30;;;14.60;54.50;;;;;;12933262;23;20171;-80
2022/03/18 18:36:28;;;;;;;16.27;10.50;;;14.70;54.50;;;;;;12930930;23;20168;-80
2022/03/18 18:41:31;;;;;;;18.27;9.63;;;14.50;54.40;;;;;;12913857;23;20519;-80
2022/03/18 18:46:34;;;;;;;19.37;10.40;;;14.60;55.10;;;;;;12917394;23;20232;-80
2022/03/18 18:51:37;;;;;;;13.03;8.67;;;15.00;54.40;;;;;;12934863;23;20162;-80
2022/03/18 18:56:41;;;;;;;13.53;9.50;;;;;;;;;;12916675;23;20166;-80
2022/03/18 19:01:43;;;;;;;14.27;8.77;;;15.10;53.80;;;;;;12934565;23;20579;-80
2022/03/18 19:06:46;;;;;;;16.67;9.40;;;15.10;54.50;;;;;;12889927;23;20174;-80
2022/03/18 19:11:49;;;;;;;16.00;9.13;;;15.10;54.40;;;;;;12915782;23;20170;-80
2022/03/18 19:16:55;;;;;;;16.43;8.93;;;15.20;54.50;;;;;;12917192;23;20175;-80
2022/03/18 19:21:58;;;;;;;13.40;7.97;;;15.10;54.50;;;;;;12914437;23;20301;-80
2022/03/18 19:27:00;;;;;;;13.00;9.23;;;15.00;54.90;;;;;;12916075;23;20170;-80
2022/03/18 19:37:26;;;;;;;14.73;9.13;;;14.60;55.30;;;;;;12913118;23;20268;-80
2022/03/18 19:42:29;;;;;;;14.60;9.20;;;14.40;56.40;;;;;;12916130;23;20192;-80
2022/03/18 19:47:34;;;;;;;15.20;9.30;;;14.40;56.00;;;;;;12915796;23;20197;-80
2022/03/18 19:52:37;;;;;;;11.77;8.67;;;14.50;56.40;;;;;;12889354;23;20178;-80
2022/03/18 20:03:01;;;;;;;11.70;8.97;;;14.50;56.40;;;;;;12929948;23;20174;-80
2022/03/18 20:08:05;;;;;;;16.53;9.33;;;14.70;56.40;;;;;;12915429;23;20167;-80
2022/03/18 20:13:09;;;;;;;17.60;10.47;;;14.60;56.30;;;;;;12912704;23;20175;-80
2022/03/18 20:18:13;;;;;;;14.17;9.83;;;14.60;56.40;;;;;;12913733;23;20707;-79
2022/03/18 20:23:15;;;;;;;16.10;10.73;;;14.80;56.30;;;;;;12916001;23;20166;-80
2022/03/18 20:28:18;;;;;;;15.67;10.60;;;14.70;56.40;;;;;;12912895;23;20711;-80
2022/03/18 20:33:21;;;;;;;17.10;10.47;;;14.60;56.40;;;;;;12915023;23;20200;-79
2022/03/18 20:38:23;;;;;;;18.60;11.67;;;14.80;56.20;;;;;;12914927;23;20530;-80
2022/03/18 20:43:26;;;;;;;15.60;9.97;;;14.80;56.00;;;;;;12916597;23;20196;-80
2022/03/18 20:48:30;;;;;;;17.63;10.57;;;14.80;56.10;;;;;;12914087;23;20173;-80
2022/03/18 20:53:33;;;;;;;16.47;11.57;;;14.70;56.30;;;;;;12888927;23;20177;-80
2022/03/18 20:58:36;;;;;;;24.87;14.17;;;14.40;56.70;;;;;;12914960;23;20498;-80
2022/03/18 21:03:38;;;;;;;15.93;10.83;;;14.40;56.90;;;;;;12913132;22;20557;-80
2022/03/18 21:08:41;;;;;;;14.73;10.77;;;14.60;56.70;;;;;;12913261;23;20170;-79
2022/03/18 21:13:44;;;;;;;14.33;10.63;;;14.50;56.90;;;;;;12913923;23;20170;-80
2022/03/18 21:18:47;;;;;;;22.93;13.63;;;14.60;56.80;;;;;;12912508;23;20182;-80
2022/03/18 21:23:50;;;;;;;19.67;12.43;;;14.40;56.80;;;;;;12914970;23;20170;-79
2022/03/18 21:34:14;;;;;;;19.07;11.20;;;14.50;56.80;;;;;;12910830;23;20185;-80
2022/03/18 21:39:17;;;;;;;18.80;11.93;;;14.70;56.50;;;;;;12917067;23;20190;-80
2022/03/18 21:44:19;;;;;;;94.90;50.00;;;14.50;56.40;;;;;;12917071;23;20259;-80
2022/03/18 21:49:22;;;;;;;102.77;49.00;;;-0.50;76.30;;;;;;12914595;23;20175;-80
2022/03/18 21:54:24;;;;;;;33.50;17.07;;;-0.50;78.20;;;;;;12914127;23;20166;-80
2022/03/18 21:59:27;;;;;;;24.03;14.13;;;6.60;99.90;;;;;;12913683;23;20190;-81
2022/03/18 22:04:30;;;;;;;31.30;14.53;;;10.10;99.90;;;;;;12923906;23;20171;-81
2022/03/18 22:09:32;;;;;;;32.13;14.97;;;11.70;92.70;;;;;;12914265;23;20225;-82
2022/03/18 22:14:38;;;;;;;31.03;16.47;;;12.50;86.90;;;;;;12916948;23;20162;-86
2022/03/18 22:19:42;;;;;;;26.13;14.40;;;12.50;82.80;;;;;;12925265;23;20227;-83
2022/03/18 22:24:45;;;;;;;27.63;15.90;;;13.10;79.50;;;;;;12917064;23;20560;-82
2022/03/18 22:29:47;;;;;;;26.13;14.10;;;13.60;76.60;;;;;;12917510;23;20508;-81
2022/03/18 22:34:50;;;;;;;24.43;13.80;;;13.90;74.10;;;;;;12918469;23;20760;-83
2022/03/18 22:39:53;;;;;;;29.33;16.13;;;14.40;71.50;;;;;;12915283;23;20190;-82
2022/03/18 22:44:55;;;;;;;24.50;15.87;;;14.40;70.10;;;;;;12916661;23;20680;-81
2022/03/18 22:49:59;;;;;;;24.17;15.37;;;14.00;71.00;;;;;;12917720;23;20506;-81
2022/03/18 22:55:02;;;;;;;26.63;15.13;;;14.20;69.50;;;;;;12919859;23;20232;-81
2022/03/18 23:00:08;;;;;;;32.63;18.53;;;14.20;68.80;;;;;;12920229;23;20305;-84
2022/03/18 23:05:12;;;;;;;24.27;15.03;;;14.10;68.80;;;;;;12919774;23;20170;-81
2022/03/18 23:15:35;;;;;;;28.03;16.53;;;14.60;66.80;;;;;;12938894;23;20170;-81
2022/03/18 23:20:38;;;;;;;27.07;16.90;;;14.60;66.20;;;;;;12919705;23;20523;-81
2022/03/18 23:25:42;;;;;;;25.63;15.57;;;14.60;66.00;;;;;;12918226;23;20648;-81
2022/03/18 23:30:47;;;;;;;27.10;16.73;;;14.40;65.80;;;;;;12919124;23;20218;-81
2022/03/18 23:35:50;;;;;;;29.97;17.20;;;14.50;65.70;;;;;;12919414;23;20172;-81
2022/03/18 23:40:52;;;;;;;27.53;17.30;;;14.50;65.20;;;;;;12919645;23;20568;-81
2022/03/18 23:45:55;;;;;;;29.83;19.13;;;14.30;65.00;;;;;;12927954;23;20191;-81
2022/03/18 23:50:58;;;;;;;29.17;17.00;;;14.20;65.10;;;;;;12919018;23;20176;-81
2022/03/18 23:56:00;;;;;;;28.33;17.40;;;14.30;65.10;;;;;;12936276;23;20220;-81
